sensor_id;sensor_type;location;lat;lon;timestamp;pressure;altitude;pressure_sealevel;temperature;humidity
14253;BME280;7210;51.502;10.722;2023-02-28T00:01:08;100974.38;;;-0.31;78.20
14253;BME280;7210;51.502;10.722;2023-02-28T00:03:35;100989.00;;;-0.30;77.82
14253;BME280;7210;51.502;10.722;2023-02-28T00:06:06;101007.44;;;-0.33;78.37
14253;BME280;7210;51.502;10.722;2023-02-28T00:08:35;101031.91;;;-0.36;78.86
14253;BME280;7210;51.502;10.722;2023-02-28T00:11:03;101053.63;;;-0.37;79.24
14253;BME280;7210;51.502;10.722;2023-02-28T00:13:31;101066.84;;;-0.40;79.16
14253;BME280;7210;51.502;10.722;2023-02-28T00:16:02;101073.34;;;-0.45;79.47
14253;BME280;7210;51.502;10.722;2023-02-28T00:18:30;101073.34;;;-0.34;78.94
14253;BME280;7210;51.502;10.722;2023-02-28T00:20:58;101069.06;;;-0.35;79.72
14253;BME280;7210;51.502;10.722;2023-02-28T00:23:27;101073.56;;;-0.37;79.43
14253;BME280;7210;51.502;10.722;2023-02-28T00:25:55;101076.16;;;-0.37;79.44
14253;BME280;7210;51.502;10.722;2023-02-28T00:28:22;101088.44;;;-0.39;80.05
14253;BME280;7210;51.502;10.722;2023-02-28T00:30:49;101096.34;;;-0.41;80.55
14253;BME280;7210;51.502;10.722;2023-02-28T00:33:16;101105.47;;;-0.46;80.99
14253;BME280;7210;51.502;10.722;2023-02-28T00:35:44;101121.75;;;-0.44;80.66
14253;BME280;7210;51.502;10.722;2023-02-28T00:38:12;101140.06;;;-0.46;80.83
14253;BME280;7210;51.502;10.722;2023-02-28T00:40:41;101149.59;;;-0.46;81.13
14253;BME280;7210;51.502;10.722;2023-02-28T00:43:10;101171.22;;;-0.46;80.98
14253;BME280;7210;51.502;10.722;2023-02-28T00:45:37;101185.50;;;-0.40;81.94
14253;BME280;7210;51.502;10.722;2023-02-28T00:48:05;101194.00;;;-0.38;82.09
14253;BME280;7210;51.502;10.722;2023-02-28T00:50:37;101199.91;;;-0.36;82.24
14253;BME280;7210;51.502;10.722;2023-02-28T00:53:04;101204.97;;;-0.35;82.29
14253;BME280;7210;51.502;10.722;2023-02-28T00:55:32;101199.69;;;-0.33;82.67
14253;BME280;7210;51.502;10.722;2023-02-28T00:58:03;101202.88;;;-0.30;82.42
14253;BME280;7210;51.502;10.722;2023-02-28T01:00:30;101203.69;;;-0.29;82.91
14253;BME280;7210;51.502;10.722;2023-02-28T01:02:57;101193.53;;;-0.32;82.81
14253;BME280;7210;51.502;10.722;2023-02-28T01:05:24;101191.88;;;-0.33;83.19
14253;BME280;7210;51.502;10.722;2023-02-28T01:07:52;101201.44;;;-0.34;83.58
14253;BME280;7210;51.502;10.722;2023-02-28T01:10:19;101194.69;;;-0.36;83.38
14253;BME280;7210;51.502;10.722;2023-02-28T01:12:46;101195.66;;;-0.37;83.67
14253;BME280;7210;51.502;10.722;2023-02-28T01:15:16;101187.16;;;-0.39;83.67
14253;BME280;7210;51.502;10.722;2023-02-28T01:17:44;101187.41;;;-0.42;84.25
14253;BME280;7210;51.502;10.722;2023-02-28T01:20:12;101194.47;;;-0.44;84.82
14253;BME280;7210;51.502;10.722;2023-02-28T01:22:39;101197.06;;;-0.44;85.08
14253;BME280;7210;51.502;10.722;2023-02-28T01:25:08;101204.84;;;-0.44;85.67
14253;BME280;7210;51.502;10.722;2023-02-28T01:27:35;101203.19;;;-0.45;85.62
14253;BME280;7210;51.502;10.722;2023-02-28T01:30:03;101200.59;;;-0.45;86.02
14253;BME280;7210;51.502;10.722;2023-02-28T01:32:31;101208.41;;;-0.45;85.89
14253;BME280;7210;51.502;10.722;2023-02-28T01:34:59;101216.53;;;-0.39;86.68
14253;BME280;7210;51.502;10.722;2023-02-28T01:37:26;101213.03;;;-0.38;86.43
14253;BME280;7210;51.502;10.722;2023-02-28T01:39:54;101199.19;;;-0.38;87.29
14253;BME280;7210;51.502;10.722;2023-02-28T01:42:21;101192.34;;;-0.39;86.69
14253;BME280;7210;51.502;10.722;2023-02-28T01:45:03;101185.50;;;-0.40;87.29
14253;BME280;7210;51.502;10.722;2023-02-28T01:47:38;101180.31;;;-0.40;87.42
14253;BME280;7210;51.502;10.722;2023-02-28T01:50:13;101181.97;;;-0.39;87.54
14253;BME280;7210;51.502;10.722;2023-02-28T01:52:43;101168.03;;;-0.38;87.53
14253;BME280;7210;51.502;10.722;2023-02-28T01:55:13;101162.84;;;-0.38;87.49
14253;BME280;7210;51.502;10.722;2023-02-28T01:57:46;101154.78;;;-0.35;87.33
14253;BME280;7210;51.502;10.722;2023-02-28T02:00:18;101148.66;;;-0.34;87.27
14253;BME280;7210;51.502;10.722;2023-02-28T02:02:51;101138.28;;;-0.34;87.12
14253;BME280;7210;51.502;10.722;2023-02-28T02:05:23;101135.53;;;-0.33;86.57
14253;BME280;7210;51.502;10.722;2023-02-28T02:07:55;101129.28;;;-0.30;86.94
14253;BME280;7210;51.502;10.722;2023-02-28T02:10:32;101122.19;;;-0.28;86.92
14253;BME280;7210;51.502;10.722;2023-02-28T02:13:28;101120.31;;;-0.26;86.43
14253;BME280;7210;51.502;10.722;2023-02-28T02:16:13;101108.25;;;-0.27;86.30
14253;BME280;7210;51.502;10.722;2023-02-28T02:18:53;101095.41;;;-0.29;86.07
14253;BME280;7210;51.502;10.722;2023-02-28T02:25:21;101097.63;;;-0.24;86.15
14253;BME280;7210;51.502;10.722;2023-02-28T02:28:33;101085.81;;;-0.28;86.05
14253;BME280;7210;51.502;10.722;2023-02-28T02:31:37;101081.13;;;-0.34;86.07
14253;BME280;7210;51.502;10.722;2023-02-28T02:34:40;101085.59;;;-0.36;86.58
14253;BME280;7210;51.502;10.722;2023-02-28T02:37:17;101083.25;;;-0.39;86.83
14253;BME280;7210;51.502;10.722;2023-02-28T02:39:56;101096.34;;;-0.41;86.93
14253;BME280;7210;51.502;10.722;2023-02-28T02:42:33;101103.34;;;-0.41;87.38
14253;BME280;7210;51.502;10.722;2023-02-28T02:45:09;101116.53;;;-0.44;87.79
14253;BME280;7210;51.502;10.722;2023-02-28T02:47:38;101103.00;;;-0.59;87.77
14253;BME280;7210;51.502;10.722;2023-02-28T02:50:14;101137.31;;;-0.44;88.00
14253;BME280;7210;51.502;10.722;2023-02-28T02:52:49;101142.50;;;-0.44;88.29
14253;BME280;7210;51.502;10.722;2023-02-28T02:55:20;101151.16;;;-0.44;88.87
14253;BME280;7210;51.502;10.722;2023-02-28T02:57:53;101147.25;;;-0.49;89.08
14253;BME280;7210;51.502;10.722;2023-02-28T03:00:26;101155.16;;;-0.40;89.12
14253;BME280;7210;51.502;10.722;2023-02-28T03:02:58;101159.28;;;-0.37;89.56
14253;BME280;7210;51.502;10.722;2023-02-28T03:05:35;101163.16;;;-0.32;88.86
14253;BME280;7210;51.502;10.722;2023-02-28T03:08:08;101151.97;;;-0.32;89.64
14253;BME280;7210;51.502;10.722;2023-02-28T03:10:38;101151.03;;;-0.31;89.74
14253;BME280;7210;51.502;10.722;2023-02-28T03:13:57;101140.28;;;-0.27;89.34
14253;BME280;7210;51.502;10.722;2023-02-28T03:16:40;101139.44;;;-0.27;89.06
14253;BME280;7210;51.502;10.722;2023-02-28T03:19:40;101129.63;;;-0.24;89.38
14253;BME280;7210;51.502;10.722;2023-02-28T03:22:41;101119.38;;;-0.25;88.79
14253;BME280;7210;51.502;10.722;2023-02-28T03:25:30;101108.25;;;-0.27;88.43
14253;BME280;7210;51.502;10.722;2023-02-28T03:28:07;101097.16;;;-0.29;88.59
14253;BME280;7210;51.502;10.722;2023-02-28T03:30:44;101089.38;;;-0.29;88.62
14253;BME280;7210;51.502;10.722;2023-02-28T03:33:21;101085.25;;;-0.32;88.88
14253;BME280;7210;51.502;10.722;2023-02-28T03:35:55;101086.91;;;-0.31;88.60
14253;BME280;7210;51.502;10.722;2023-02-28T03:38:32;101080.88;;;-0.31;89.02
14253;BME280;7210;51.502;10.722;2023-02-28T03:41:08;101087.03;;;-0.32;88.56
14253;BME280;7210;51.502;10.722;2023-02-28T03:43:45;101086.34;;;-0.34;88.53
14253;BME280;7210;51.502;10.722;2023-02-28T03:46:21;101090.56;;;-0.33;88.59
14253;BME280;7210;51.502;10.722;2023-02-28T03:48:56;101098.22;;;-0.32;88.76
14253;BME280;7210;51.502;10.722;2023-02-28T03:51:27;101092.91;;;-0.30;89.09
14253;BME280;7210;51.502;10.722;2023-02-28T03:54:03;101099.75;;;-0.29;88.64
14253;BME280;7210;51.502;10.722;2023-02-28T03:56:40;101098.81;;;-0.28;88.55
14253;BME280;7210;51.502;10.722;2023-02-28T03:59:15;101110.25;;;-0.20;88.82
14253;BME280;7210;51.502;10.722;2023-02-28T04:01:47;101105.75;;;-0.07;88.25
14253;BME280;7210;51.502;10.722;2023-02-28T04:04:16;101081.47;;;0.03;86.84
14253;BME280;7210;51.502;10.722;2023-02-28T04:06:45;101059.13;;;0.12;86.27
14253;BME280;7210;51.502;10.722;2023-02-28T04:09:14;101037.59;;;0.21;86.00
14253;BME280;7210;51.502;10.722;2023-02-28T04:11:44;101006.97;;;0.24;85.59
14253;BME280;7210;51.502;10.722;2023-02-28T04:14:15;100974.56;;;0.28;84.48
14253;BME280;7210;51.502;10.722;2023-02-28T04:16:43;100965.16;;;0.37;84.27
14253;BME280;7210;51.502;10.722;2023-02-28T04:19:12;100944.91;;;0.40;83.61
14253;BME280;7210;51.502;10.722;2023-02-28T04:21:43;100901.94;;;0.36;83.04
14253;BME280;7210;51.502;10.722;2023-02-28T04:24:14;100880.56;;;0.33;82.84
14253;BME280;7210;51.502;10.722;2023-02-28T04:26:45;100872.94;;;0.41;82.49
14253;BME280;7210;51.502;10.722;2023-02-28T04:29:19;100864.06;;;0.43;82.25
14253;BME280;7210;51.502;10.722;2023-02-28T04:31:46;100832.41;;;0.38;81.78
14253;BME280;7210;51.502;10.722;2023-02-28T04:34:13;100818.84;;;0.35;81.30
14253;BME280;7210;51.502;10.722;2023-02-28T04:36:41;100801.03;;;0.30;81.55
14253;BME280;7210;51.502;10.722;2023-02-28T04:39:08;100778.00;;;0.16;81.55
14253;BME280;7210;51.502;10.722;2023-02-28T04:41:38;100795.69;;;0.22;81.11
14253;BME280;7210;51.502;10.722;2023-02-28T04:44:05;100778.00;;;0.16;80.82
14253;BME280;7210;51.502;10.722;2023-02-28T04:46:32;100771.44;;;0.12;80.79
14253;BME280;7210;51.502;10.722;2023-02-28T04:48:59;100768.00;;;0.12;80.74
14253;BME280;7210;51.502;10.722;2023-02-28T04:51:26;100756.75;;;0.11;80.76
14253;BME280;7210;51.502;10.722;2023-02-28T04:53:54;100749.69;;;0.13;80.14
14253;BME280;7210;51.502;10.722;2023-02-28T04:56:22;100738.44;;;0.13;80.30
14253;BME280;7210;51.502;10.722;2023-02-28T04:58:51;100738.31;;;0.14;79.51
14253;BME280;7210;51.502;10.722;2023-02-28T05:01:24;100729.84;;;0.12;80.25
14253;BME280;7210;51.502;10.722;2023-02-28T05:03:53;100723.94;;;0.10;80.12
14253;BME280;7210;51.502;10.722;2023-02-28T05:06:22;100712.16;;;0.06;79.31
14253;BME280;7210;51.502;10.722;2023-02-28T05:08:51;100724.47;;;0.04;80.16
14253;BME280;7210;51.502;10.722;2023-02-28T05:11:20;100729.91;;;0.01;79.83
14253;BME280;7210;51.502;10.722;2023-02-28T05:13:49;100724.31;;;-0.03;80.23
14253;BME280;7210;51.502;10.722;2023-02-28T05:16:19;100718.69;;;-0.08;80.04
14253;BME280;7210;51.502;10.722;2023-02-28T05:18:46;100723.44;;;-0.13;79.75
14253;BME280;7210;51.502;10.722;2023-02-28T05:21:28;100748.47;;;-0.13;80.36
14253;BME280;7210;51.502;10.722;2023-02-28T05:23:58;100743.53;;;-0.15;79.94
14253;BME280;7210;51.502;10.722;2023-02-28T05:26:26;100742.59;;;-0.14;79.65
14253;BME280;7210;51.502;10.722;2023-02-28T05:28:54;100714.78;;;-0.23;80.13
14253;BME280;7210;51.502;10.722;2023-02-28T05:31:23;100718.84;;;-0.30;79.81
14253;BME280;7210;51.502;10.722;2023-02-28T05:33:51;100732.13;;;-0.33;80.10
14253;BME280;7210;51.502;10.722;2023-02-28T05:36:23;100748.50;;;-0.33;80.04
14253;BME280;7210;51.502;10.722;2023-02-28T05:38:51;100774.25;;;-0.30;80.74
14253;BME280;7210;51.502;10.722;2023-02-28T05:41:20;100786.13;;;-0.27;80.52
14253;BME280;7210;51.502;10.722;2023-02-28T05:43:48;100792.72;;;-0.23;80.37
14253;BME280;7210;51.502;10.722;2023-02-28T05:46:16;100796.00;;;-0.21;80.52
14253;BME280;7210;51.502;10.722;2023-02-28T05:48:47;100789.16;;;-0.22;80.19
14253;BME280;7210;51.502;10.722;2023-02-28T05:51:15;100802.28;;;-0.24;80.57
14253;BME280;7210;51.502;10.722;2023-02-28T05:53:42;100810.78;;;-0.22;80.29
14253;BME280;7210;51.502;10.722;2023-02-28T05:56:10;100811.88;;;-0.24;80.78
14253;BME280;7210;51.502;10.722;2023-02-28T05:58:37;100811.88;;;-0.24;80.62
14253;BME280;7210;51.502;10.722;2023-02-28T06:01:23;100820.34;;;-0.22;80.25
14253;BME280;7210;51.502;10.722;2023-02-28T06:03:52;100821.31;;;-0.23;80.44
14253;BME280;7210;51.502;10.722;2023-02-28T06:06:20;100829.78;;;-0.21;81.07
14253;BME280;7210;51.502;10.722;2023-02-28T06:08:50;100849.50;;;-0.19;80.77
14253;BME280;7210;51.502;10.722;2023-02-28T06:11:17;100838.25;;;-0.19;80.74
14253;BME280;7210;51.502;10.722;2023-02-28T06:13:45;100841.59;;;-0.17;80.43
14253;BME280;7210;51.502;10.722;2023-02-28T06:16:13;100841.69;;;-0.19;80.38
14253;BME280;7210;51.502;10.722;2023-02-28T06:18:40;100838.97;;;-0.17;80.51
14253;BME280;7210;51.502;10.722;2023-02-28T06:21:12;100849.94;;;-0.14;80.59
14253;BME280;7210;51.502;10.722;2023-02-28T06:23:39;100854.06;;;-0.11;80.32
14253;BME280;7210;51.502;10.722;2023-02-28T06:26:07;100846.00;;;-0.08;79.85
14253;BME280;7210;51.502;10.722;2023-02-28T06:28:34;100854.94;;;-0.02;80.44
14253;BME280;7210;51.502;10.722;2023-02-28T06:31:07;100846.19;;;-0.01;80.20
14253;BME280;7210;51.502;10.722;2023-02-28T06:33:36;100839.34;;;-0.02;79.61
14253;BME280;7210;51.502;10.722;2023-02-28T06:36:04;100834.16;;;-0.02;80.25
14253;BME280;7210;51.502;10.722;2023-02-28T06:38:34;100819.06;;;-0.08;79.59
14253;BME280;7210;51.502;10.722;2023-02-28T06:41:02;100835.69;;;0.01;79.58
14253;BME280;7210;51.502;10.722;2023-02-28T06:43:32;100833.06;;;0.01;79.42
14253;BME280;7210;51.502;10.722;2023-02-28T06:46:01;100828.13;;;-0.02;79.38
14253;BME280;7210;51.502;10.722;2023-02-28T06:48:29;100826.47;;;-0.03;79.13
14253;BME280;7210;51.502;10.722;2023-02-28T06:51:02;100833.47;;;-0.03;79.79
14253;BME280;7210;51.502;10.722;2023-02-28T06:53:30;100828.09;;;-0.11;79.44
14253;BME280;7210;51.502;10.722;2023-02-28T06:55:59;100836.56;;;-0.09;79.47
14253;BME280;7210;51.502;10.722;2023-02-28T06:58:27;100841.19;;;-0.13;79.71
14253;BME280;7210;51.502;10.722;2023-02-28T07:00:55;100832.94;;;-0.18;80.23
14253;BME280;7210;51.502;10.722;2023-02-28T07:03:23;100845.25;;;-0.20;80.32
14253;BME280;7210;51.502;10.722;2023-02-28T07:05:50;100856.72;;;-0.22;80.49
14253;BME280;7210;51.502;10.722;2023-02-28T07:08:18;100887.50;;;-0.18;80.80
14253;BME280;7210;51.502;10.722;2023-02-28T07:10:46;100900.13;;;-0.13;80.27
14253;BME280;7210;51.502;10.722;2023-02-28T07:13:15;100888.34;;;-0.17;80.04
14253;BME280;7210;51.502;10.722;2023-02-28T07:15:42;100932.91;;;-0.02;79.93
14253;BME280;7210;51.502;10.722;2023-02-28T07:18:09;100915.97;;;0.04;79.61
14253;BME280;7210;51.502;10.722;2023-02-28T07:20:36;100911.06;;;0.10;79.68
14253;BME280;7210;51.502;10.722;2023-02-28T07:23:04;100879.88;;;0.10;78.98
14253;BME280;7210;51.502;10.722;2023-02-28T07:25:31;100862.41;;;0.12;79.39
14253;BME280;7210;51.502;10.722;2023-02-28T07:27:58;100857.78;;;0.16;78.91
14253;BME280;7210;51.502;10.722;2023-02-28T07:30:27;100842.97;;;0.16;78.99
14253;BME280;7210;51.502;10.722;2023-02-28T07:32:55;100828.63;;;0.12;78.74
14253;BME280;7210;51.502;10.722;2023-02-28T07:35:23;100824.34;;;0.11;78.52
14253;BME280;7210;51.502;10.722;2023-02-28T07:37:50;100826.81;;;0.13;79.10
14253;BME280;7210;51.502;10.722;2023-02-28T07:40:18;100844.63;;;0.17;78.71
14253;BME280;7210;51.502;10.722;2023-02-28T07:42:45;100869.03;;;0.26;79.03
14253;BME280;7210;51.502;10.722;2023-02-28T07:45:16;100878.09;;;0.31;78.08
14253;BME280;7210;51.502;10.722;2023-02-28T07:47:45;100864.13;;;0.32;78.76
14253;BME280;7210;51.502;10.722;2023-02-28T07:50:14;100860.91;;;0.40;78.29
14253;BME280;7210;51.502;10.722;2023-02-28T07:52:42;100862.38;;;0.42;77.85
14253;BME280;7210;51.502;10.722;2023-02-28T07:55:10;100849.97;;;0.55;77.67
14253;BME280;7210;51.502;10.722;2023-02-28T07:57:40;100849.19;;;0.64;77.24
14253;BME280;7210;51.502;10.722;2023-02-28T08:00:10;100800.06;;;0.71;76.63
14253;BME280;7210;51.502;10.722;2023-02-28T08:02:39;100784.59;;;0.79;76.65
14253;BME280;7210;51.502;10.722;2023-02-28T08:05:09;100730.63;;;0.81;75.14
14253;BME280;7210;51.502;10.722;2023-02-28T08:07:36;100682.41;;;0.86;74.85
14253;BME280;7210;51.502;10.722;2023-02-28T08:10:04;100640.75;;;0.86;74.19
14253;BME280;7210;51.502;10.722;2023-02-28T08:12:32;100646.22;;;0.93;74.00
14253;BME280;7210;51.502;10.722;2023-02-28T08:14:59;100642.09;;;1.00;73.93
14253;BME280;7210;51.502;10.722;2023-02-28T08:17:26;100607.03;;;1.04;73.36
14253;BME280;7210;51.502;10.722;2023-02-28T08:19:54;100568.41;;;0.99;73.53
14253;BME280;7210;51.502;10.722;2023-02-28T08:22:22;100557.00;;;1.10;72.68
14253;BME280;7210;51.502;10.722;2023-02-28T08:24:49;100553.81;;;1.16;72.19
14253;BME280;7210;51.502;10.722;2023-02-28T08:27:16;100531.31;;;1.24;71.91
14253;BME280;7210;51.502;10.722;2023-02-28T08:29:43;100475.59;;;1.35;71.10
14253;BME280;7210;51.502;10.722;2023-02-28T08:32:11;100424.09;;;1.29;70.90
14253;BME280;7210;51.502;10.722;2023-02-28T08:34:39;100425.69;;;1.39;70.19
14253;BME280;7210;51.502;10.722;2023-02-28T08:37:07;100369.03;;;1.41;69.84
14253;BME280;7210;51.502;10.722;2023-02-28T08:39:36;100374.41;;;1.40;69.68
14253;BME280;7210;51.502;10.722;2023-02-28T08:42:04;100352.75;;;1.39;69.58
14253;BME280;7210;51.502;10.722;2023-02-28T08:44:32;100367.47;;;1.48;69.29
14253;BME280;7210;51.502;10.722;2023-02-28T08:46:59;100344.09;;;1.56;69.32
14253;BME280;7210;51.502;10.722;2023-02-28T08:49:26;100343.66;;;1.61;69.48
14253;BME280;7210;51.502;10.722;2023-02-28T08:51:54;100332.75;;;1.65;68.75
14253;BME280;7210;51.502;10.722;2023-02-28T08:54:23;100304.09;;;1.65;68.97
14253;BME280;7210;51.502;10.722;2023-02-28T08:56:52;100320.72;;;1.64;69.23
14253;BME280;7210;51.502;10.722;2023-02-28T08:59:19;100346.22;;;1.78;68.61
14253;BME280;7210;51.502;10.722;2023-02-28T09:01:47;100329.25;;;1.74;69.09
14253;BME280;7210;51.502;10.722;2023-02-28T09:04:17;100371.81;;;1.83;69.10
14253;BME280;7210;51.502;10.722;2023-02-28T09:06:45;100379.44;;;1.94;68.96
14253;BME280;7210;51.502;10.722;2023-02-28T09:09:16;100342.41;;;1.90;68.83
14253;BME280;7210;51.502;10.722;2023-02-28T09:11:44;100366.53;;;1.92;69.19
14253;BME280;7210;51.502;10.722;2023-02-28T09:14:13;100358.44;;;2.03;68.81
14253;BME280;7210;51.502;10.722;2023-02-28T09:16:41;100409.66;;;2.12;68.95
14253;BME280;7210;51.502;10.722;2023-02-28T09:19:11;100336.41;;;2.23;67.45
14253;BME280;7210;51.502;10.722;2023-02-28T09:21:40;100312.31;;;2.29;67.66
14253;BME280;7210;51.502;10.722;2023-02-28T09:24:08;100299.28;;;2.29;67.56
14253;BME280;7210;51.502;10.722;2023-02-28T09:26:37;100322.75;;;2.29;67.39
14253;BME280;7210;51.502;10.722;2023-02-28T09:29:05;100321.19;;;2.44;66.96
14253;BME280;7210;51.502;10.722;2023-02-28T09:31:33;100276.47;;;2.39;67.27
14253;BME280;7210;51.502;10.722;2023-02-28T09:34:01;100221.56;;;2.41;66.54
14253;BME280;7210;51.502;10.722;2023-02-28T09:36:28;100176.38;;;2.48;65.75
14253;BME280;7210;51.502;10.722;2023-02-28T09:38:58;100193.03;;;2.55;65.78
14253;BME280;7210;51.502;10.722;2023-02-28T09:41:39;100213.28;;;2.61;65.84
14253;BME280;7210;51.502;10.722;2023-02-28T09:44:24;100207.38;;;2.67;65.61
14253;BME280;7210;51.502;10.722;2023-02-28T09:47:00;100222.09;;;2.76;65.31
14253;BME280;7210;51.502;10.722;2023-02-28T09:49:37;100196.00;;;2.76;65.62
14253;BME280;7210;51.502;10.722;2023-02-28T09:52:11;100204.47;;;2.78;65.62
14253;BME280;7210;51.502;10.722;2023-02-28T09:54:40;100232.88;;;2.89;65.50
14253;BME280;7210;51.502;10.722;2023-02-28T09:57:17;100305.34;;;3.11;65.53
14253;BME280;7210;51.502;10.722;2023-02-28T10:00:01;100203.00;;;3.16;64.55
14253;BME280;7210;51.502;10.722;2023-02-28T10:03:22;100163.00;;;3.23;64.04
14253;BME280;7210;51.502;10.722;2023-02-28T10:05:59;100217.84;;;3.31;64.43
14253;BME280;7210;51.502;10.722;2023-02-28T10:08:36;100219.81;;;3.29;64.31
14253;BME280;7210;51.502;10.722;2023-02-28T10:11:15;100208.03;;;3.41;64.17
14253;BME280;7210;51.502;10.722;2023-02-28T10:13:53;100180.91;;;3.50;63.38
14253;BME280;7210;51.502;10.722;2023-02-28T10:16:31;100165.84;;;3.60;63.19
14253;BME280;7210;51.502;10.722;2023-02-28T10:19:06;100221.38;;;3.70;63.47
14253;BME280;7210;51.502;10.722;2023-02-28T10:22:14;100165.19;;;3.66;63.44
14253;BME280;7210;51.502;10.722;2023-02-28T10:24:46;100165.19;;;3.66;63.56
14253;BME280;7210;51.502;10.722;2023-02-28T10:27:17;100208.59;;;3.75;63.61
14253;BME280;7210;51.502;10.722;2023-02-28T10:29:47;100189.66;;;3.73;63.57
14253;BME280;7210;51.502;10.722;2023-02-28T10:32:18;100172.00;;;3.75;63.10
14253;BME280;7210;51.502;10.722;2023-02-28T10:34:52;100150.72;;;3.86;62.67
14253;BME280;7210;51.502;10.722;2023-02-28T10:37:22;100166.41;;;3.86;62.97
14253;BME280;7210;51.502;10.722;2023-02-28T10:39:49;100263.44;;;4.07;63.45
14253;BME280;7210;51.502;10.722;2023-02-28T10:42:22;100291.19;;;4.24;63.00
14253;BME280;7210;51.502;10.722;2023-02-28T10:45:09;100234.56;;;4.31;62.79
14253;BME280;7210;51.502;10.722;2023-02-28T10:47:52;100228.63;;;4.37;62.51
14253;BME280;7210;51.502;10.722;2023-02-28T10:50:37;100262.25;;;4.56;62.19
14253;BME280;7210;51.502;10.722;2023-02-28T10:53:30;100191.19;;;4.59;61.77
14253;BME280;7210;51.502;10.722;2023-02-28T10:56:12;100089.81;;;4.30;61.49
14253;BME280;7210;51.502;10.722;2023-02-28T10:58:55;100108.47;;;4.50;61.06
14253;BME280;7210;51.502;10.722;2023-02-28T11:01:27;100018.56;;;4.43;60.68
14253;BME280;7210;51.502;10.722;2023-02-28T11:04:03;100075.06;;;4.52;60.66
14253;BME280;7210;51.502;10.722;2023-02-28T11:06:44;100070.44;;;4.62;60.65
14253;BME280;7210;51.502;10.722;2023-02-28T11:09:23;100081.81;;;4.69;60.43
14253;BME280;7210;51.502;10.722;2023-02-28T11:11:51;100074.31;;;4.66;60.55
14253;BME280;7210;51.502;10.722;2023-02-28T11:14:23;99983.03;;;4.63;59.81
14253;BME280;7210;51.502;10.722;2023-02-28T11:16:52;99927.59;;;4.59;59.41
14253;BME280;7210;51.502;10.722;2023-02-28T11:19:25;99987.63;;;4.61;59.85
14253;BME280;7210;51.502;10.722;2023-02-28T11:21:59;100079.84;;;4.71;60.52
14253;BME280;7210;51.502;10.722;2023-02-28T11:24:31;100100.72;;;4.79;60.50
14253;BME280;7210;51.502;10.722;2023-02-28T11:27:00;100148.13;;;4.84;60.93
14253;BME280;7210;51.502;10.722;2023-02-28T11:29:30;100180.78;;;4.96;60.66
14253;BME280;7210;51.502;10.722;2023-02-28T11:32:04;100133.63;;;4.96;60.40
14253;BME280;7210;51.502;10.722;2023-02-28T11:34:36;100083.16;;;5.02;59.86
14253;BME280;7210;51.502;10.722;2023-02-28T11:37:13;100113.88;;;5.08;59.70
14253;BME280;7210;51.502;10.722;2023-02-28T11:39:41;100124.44;;;5.00;60.11
14253;BME280;7210;51.502;10.722;2023-02-28T11:42:34;100113.88;;;5.08;60.14
14253;BME280;7210;51.502;10.722;2023-02-28T11:45:19;100092.84;;;5.16;59.19
14253;BME280;7210;51.502;10.722;2023-02-28T11:48:01;100091.84;;;5.17;59.33
14253;BME280;7210;51.502;10.722;2023-02-28T11:50:48;100070.13;;;5.23;58.98
14253;BME280;7210;51.502;10.722;2023-02-28T11:56:24;100094.19;;;5.41;58.65
14253;BME280;7210;51.502;10.722;2023-02-28T11:59:27;100094.53;;;5.38;59.35
14253;BME280;7210;51.502;10.722;2023-02-28T12:02:18;100103.06;;;5.40;58.99
14253;BME280;7210;51.502;10.722;2023-02-28T12:07:56;100032.50;;;5.45;57.99
14253;BME280;7210;51.502;10.722;2023-02-28T12:10:29;99900.66;;;5.30;57.55
14253;BME280;7210;51.502;10.722;2023-02-28T12:13:13;99935.56;;;5.30;57.72
14253;BME280;7210;51.502;10.722;2023-02-28T12:16:05;99997.63;;;5.44;57.98
14253;BME280;7210;51.502;10.722;2023-02-28T12:18:56;100009.81;;;5.52;57.76
14253;BME280;7210;51.502;10.722;2023-02-28T12:21:41;100006.00;;;5.54;57.78
14253;BME280;7210;51.502;10.722;2023-02-28T12:24:39;100064.22;;;5.64;58.04
14253;BME280;7210;51.502;10.722;2023-02-28T12:27:23;100011.88;;;5.71;57.36
14253;BME280;7210;51.502;10.722;2023-02-28T12:30:00;100034.09;;;5.75;57.43
14253;BME280;7210;51.502;10.722;2023-02-28T12:32:33;100010.41;;;5.83;56.78
14253;BME280;7210;51.502;10.722;2023-02-28T12:35:11;100088.53;;;6.02;57.17
14253;BME280;7210;51.502;10.722;2023-02-28T12:37:45;100026.53;;;6.01;56.50
14253;BME280;7210;51.502;10.722;2023-02-28T12:40:20;100031.66;;;5.88;57.28
14253;BME280;7210;51.502;10.722;2023-02-28T12:42:52;100113.31;;;5.99;57.81
14253;BME280;7210;51.502;10.722;2023-02-28T12:45:25;100122.88;;;6.07;57.91
14253;BME280;7210;51.502;10.722;2023-02-28T12:48:00;100034.34;;;5.94;57.16
14253;BME280;7210;51.502;10.722;2023-02-28T12:50:32;100054.25;;;5.89;57.65
14253;BME280;7210;51.502;10.722;2023-02-28T12:53:04;100089.25;;;5.96;57.94
14253;BME280;7210;51.502;10.722;2023-02-28T12:55:41;100095.91;;;6.13;57.17
14253;BME280;7210;51.502;10.722;2023-02-28T12:58:20;100115.16;;;6.20;57.17
14253;BME280;7210;51.502;10.722;2023-02-28T13:01:12;99978.19;;;6.10;55.92
14253;BME280;7210;51.502;10.722;2023-02-28T13:04:08;99925.88;;;6.08;55.71
14253;BME280;7210;51.502;10.722;2023-02-28T13:07:05;99860.94;;;5.89;56.10
14253;BME280;7210;51.502;10.722;2023-02-28T13:09:35;99904.72;;;5.89;55.96
14253;BME280;7210;51.502;10.722;2023-02-28T13:12:13;99878.88;;;5.86;55.87
14253;BME280;7210;51.502;10.722;2023-02-28T13:14:43;99802.53;;;5.81;54.82
14253;BME280;7210;51.502;10.722;2023-02-28T13:17:13;99852.63;;;5.86;55.59
14253;BME280;7210;51.502;10.722;2023-02-28T13:19:57;99983.56;;;6.02;56.47
14253;BME280;7210;51.502;10.722;2023-02-28T13:22:41;100044.84;;;6.15;56.05
14253;BME280;7210;51.502;10.722;2023-02-28T13:25:52;99980.41;;;6.13;55.74
14253;BME280;7210;51.502;10.722;2023-02-28T13:29:19;99974.72;;;6.09;56.11
14253;BME280;7210;51.502;10.722;2023-02-28T13:35:43;100093.44;;;6.11;57.09
14253;BME280;7210;51.502;10.722;2023-02-28T13:38:34;99969.78;;;6.00;55.98
14253;BME280;7210;51.502;10.722;2023-02-28T13:41:45;99914.38;;;5.88;55.99